Time;durP1;ratioP1;P1;durP2;ratioP2;P2;SDS_P1;SDS_P2;PMS_P1;PMS_P2;Temp;Humidity;BMP_temperature;BMP_pressure;BME280_temperature;BME280_humidity;BME280_pressure;Samples;Min_cycle;Max_cycle;Signal;HPM_P1;HPM_P2
2023/10/06 00:00:10;;;;;;;20.08;9.75;;;;;;;14.35;100.00;98108.34;5157640;27;20026;-72
2023/10/06 00:02:36;;;;;;;16.20;9.13;;;;;;;14.28;100.00;98107.88;5176251;27;20089;-71
2023/10/06 00:05:11;;;;;;;21.38;10.10;;;;;;;14.22;100.00;98107.41;5157544;27;20030;-72
2023/10/06 00:07:36;;;;;;;23.33;9.35;;;;;;;14.09;100.00;98112.75;5159000;27;20025;-71
2023/10/06 00:10:07;;;;;;;19.73;10.02;;;;;;;14.05;100.00;98111.25;5128288;27;20035;-71
2023/10/06 00:12:33;;;;;;;21.02;11.27;;;;;;;13.98;100.00;98105.41;5126965;27;20026;-71
2023/10/06 00:14:59;;;;;;;17.85;10.93;;;;;;;13.98;100.00;98101.88;5176101;27;20640;-71
2023/10/06 00:17:28;;;;;;;24.00;10.23;;;;;;;13.99;100.00;98100.91;5105173;27;20121;-71
2023/10/06 00:19:56;;;;;;;16.75;9.73;;;;;;;13.97;100.00;98108.19;5104097;27;20023;-71
2023/10/06 00:22:26;;;;;;;18.55;10.65;;;;;;;13.97;100.00;98111.75;5131089;27;20089;-71
2023/10/06 00:24:55;;;;;;;21.55;11.10;;;;;;;13.97;100.00;98113.56;5155216;27;20030;-71
2023/10/06 00:27:29;;;;;;;17.65;10.25;;;;;;;14.00;100.00;98121.44;5119458;27;20034;-71
2023/10/06 00:29:55;;;;;;;19.60;10.65;;;;;;;13.94;100.00;98109.28;5137797;27;20023;-71
2023/10/06 00:32:28;;;;;;;20.90;10.60;;;;;;;13.84;100.00;98120.75;5136060;27;20027;-71
2023/10/06 00:35:17;;;;;;;18.40;10.93;;;;;;;13.81;100.00;98120.97;5136905;27;20091;-72
2023/10/06 00:37:43;;;;;;;24.58;11.70;;;;;;;13.69;100.00;98121.75;5121752;27;20075;-72
2023/10/06 00:40:19;;;;;;;23.02;12.25;;;;;;;13.69;100.00;98119.91;5119274;27;20094;-72
2023/10/06 00:42:53;;;;;;;24.02;11.55;;;;;;;13.68;100.00;98117.34;5120107;27;20027;-73
2023/10/06 00:45:21;;;;;;;23.83;12.57;;;;;;;13.57;100.00;98120.72;5136305;27;20023;-73
2023/10/06 00:47:47;;;;;;;22.48;11.93;;;;;;;13.55;100.00;98117.28;5142131;27;20054;-72
2023/10/06 00:50:22;;;;;;;31.15;12.95;;;;;;;13.64;100.00;98116.66;5116111;27;20087;-72
2023/10/06 00:52:47;;;;;;;21.42;11.80;;;;;;;13.65;100.00;98106.78;5127577;27;20435;-72
2023/10/06 00:55:14;;;;;;;19.63;11.10;;;;;;;13.58;100.00;98106.31;5128413;27;20031;-72
2023/10/06 00:57:50;;;;;;;22.80;12.05;;;;;;;13.67;100.00;98115.59;5098030;27;20022;-71
2023/10/06 01:00:25;;;;;;;22.27;11.75;;;;;;;13.68;100.00;98118.19;5099513;27;20486;-72
2023/10/06 01:02:51;;;;;;;19.25;11.00;;;;;;;13.74;100.00;98115.13;5120573;27;20111;-71
2023/10/06 01:05:17;;;;;;;19.38;11.18;;;;;;;13.80;100.00;98124.59;5136187;27;20062;-71
2023/10/06 01:07:45;;;;;;;25.45;11.15;;;;;;;13.89;100.00;98110.53;5118080;27;20034;-70
2023/10/06 01:10:16;;;;;;;22.02;12.38;;;;;;;14.03;100.00;98115.84;5135650;27;20030;-72
2023/10/06 01:12:43;;;;;;;22.15;11.55;;;;;;;14.13;100.00;98116.97;5136163;27;20022;-72
2023/10/06 01:15:19;;;;;;;21.88;11.73;;;;;;;14.19;100.00;98107.63;5118377;27;20026;-72
2023/10/06 01:17:45;;;;;;;20.08;11.70;;;;;;;14.29;100.00;98114.13;5119424;27;20486;-73
2023/10/06 01:20:35;;;;;;;23.23;11.55;;;;;;;14.33;100.00;98115.69;5118291;27;20030;-73
2023/10/06 01:23:01;;;;;;;19.65;11.05;;;;;;;14.24;100.00;98110.88;5153688;27;20082;-71
2023/10/06 01:25:27;;;;;;;19.55;10.60;;;;;;;14.30;100.00;98114.03;5118109;27;20050;-72
2023/10/06 01:27:53;;;;;;;19.58;10.98;;;;;;;14.44;100.00;98113.97;5131676;27;20019;-71
2023/10/06 01:30:19;;;;;;;21.55;11.25;;;;;;;14.40;100.00;98109.75;5129224;27;20087;-71
2023/10/06 01:32:48;;;;;;;19.23;10.77;;;;;;;14.42;100.00;98121.31;5153289;27;20031;-71
2023/10/06 01:35:17;;;;;;;19.92;11.43;;;;;;;14.35;100.00;98117.28;5118271;27;20034;-71
2023/10/06 01:37:44;;;;;;;22.58;10.90;;;;;;;14.38;100.00;98130.53;5117801;27;20031;-72
2023/10/06 01:42:48;;;;;;;17.63;10.13;;;;;;;14.27;100.00;98125.00;5137042;27;20114;-71
2023/10/06 01:45:15;;;;;;;21.20;10.35;;;;;;;14.17;100.00;98121.19;5123065;27;20030;-71
2023/10/06 01:47:41;;;;;;;17.83;11.23;;;;;;;14.09;100.00;98119.00;5105621;27;20035;-71
2023/10/06 01:50:08;;;;;;;20.63;10.98;;;;;;;14.14;100.00;98132.16;5117531;27;20037;-72
2023/10/06 01:52:34;;;;;;;20.40;10.80;;;;;;;14.04;100.00;98131.03;5134658;27;20424;-72
2023/10/06 01:55:03;;;;;;;16.60;10.93;;;;;;;14.04;100.00;98141.81;5117202;27;20090;-72
2023/10/06 01:57:28;;;;;;;18.90;10.38;;;;;;;14.00;100.00;98140.28;5135314;27;20113;-72
2023/10/06 01:59:54;;;;;;;23.33;10.80;;;;;;;13.97;100.00;98137.78;5134587;27;20109;-72
2023/10/06 02:02:23;;;;;;;17.67;9.68;;;;;;;14.04;100.00;98131.03;5105631;27;20482;-71
2023/10/06 02:04:50;;;;;;;20.45;11.13;;;;;;;14.07;100.00;98136.22;5114604;27;20038;-72
2023/10/06 02:07:18;;;;;;;21.50;10.73;;;;;;;14.02;100.00;98132.97;5114155;27;20179;-71
2023/10/06 02:09:44;;;;;;;22.35;10.73;;;;;;;14.07;100.00;98137.09;5114183;27;20121;-71
2023/10/06 02:12:10;;;;;;;19.65;10.63;;;;;;;14.03;100.00;98145.44;5123574;27;20167;-72
2023/10/06 02:14:35;;;;;;;17.98;9.73;;;;;;;13.98;100.00;98144.91;5134203;27;20034;-73
2023/10/06 02:17:06;;;;;;;28.73;10.40;;;;;;;14.03;100.00;98149.00;5108017;27;20046;-72
2023/10/06 02:19:32;;;;;;;25.08;10.90;;;;;;;13.88;100.00;98141.09;5105768;27;20031;-71
2023/10/06 02:21:58;;;;;;;19.05;10.20;;;;;;;13.87;100.00;98139.38;5120903;27;20094;-71
2023/10/06 02:24:23;;;;;;;17.60;10.40;;;;;;;13.89;100.00;98142.81;5152310;27;20558;-72
2023/10/06 02:26:57;;;;;;;18.92;10.75;;;;;;;13.93;100.00;98144.34;5117012;27;20442;-72
2023/10/06 02:29:23;;;;;;;23.70;10.52;;;;;;;13.86;100.00;98149.25;5114287;27;20452;-73
2023/10/06 02:31:52;;;;;;;22.58;11.20;;;;;;;13.86;100.00;98149.25;5111714;27;20038;-72
2023/10/06 02:34:35;;;;;;;20.70;10.60;;;;;;;13.83;100.00;98148.59;5133874;27;20046;-72
2023/10/06 02:37:06;;;;;;;20.33;10.82;;;;;;;13.91;100.00;98151.63;5133820;27;20041;-72
2023/10/06 02:39:37;;;;;;;19.05;10.05;;;;;;;13.95;100.00;98158.56;5130342;27;20118;-72
2023/10/06 02:42:13;;;;;;;19.00;10.25;;;;;;;13.98;100.00;98153.84;5141604;27;20027;-72
2023/10/06 02:44:40;;;;;;;20.58;10.32;;;;;;;14.02;100.00;98146.44;5138729;27;20019;-71
2023/10/06 02:47:09;;;;;;;19.17;10.85;;;;;;;14.06;100.00;98150.63;5096118;27;20493;-72
2023/10/06 02:49:37;;;;;;;26.55;11.73;;;;;;;14.08;100.00;98151.41;5127454;27;20098;-72
2023/10/06 02:52:13;;;;;;;27.60;11.95;;;;;;;14.02;100.00;98155.38;5116816;27;20118;-72
2023/10/06 02:57:35;;;;;;;18.70;11.25;;;;;;;14.10;100.00;98157.53;5115563;27;20051;-72
2023/10/06 03:00:28;;;;;;;24.15;11.70;;;;;;;14.08;100.00;98149.59;5096917;27;20027;-71
2023/10/06 03:02:48;;;;;;;19.92;11.35;;;;;;;14.19;100.00;98150.69;5109776;27;20034;-72
2023/10/06 03:05:14;;;;;;;24.90;12.80;;;;;;;14.21;100.00;98154.16;5113686;27;20023;-71
2023/10/06 03:07:43;;;;;;;22.52;12.20;;;;;;;14.15;100.00;98150.00;5103848;28;20026;-72
2023/10/06 03:10:11;;;;;;;23.02;12.00;;;;;;;14.10;100.00;98150.34;5131690;27;20102;-72
2023/10/06 03:12:40;;;;;;;24.00;12.30;;;;;;;14.17;100.00;98152.63;5099972;27;20041;-72
2023/10/06 03:15:28;;;;;;;26.45;12.65;;;;;;;14.16;100.00;98141.00;5134073;27;20027;-72
2023/10/06 03:17:58;;;;;;;17.90;11.60;;;;;;;14.20;100.00;98155.97;5136691;27;20027;-72
2023/10/06 03:20:30;;;;;;;25.23;12.15;;;;;;;14.30;100.00;98158.91;5124820;27;20043;-72
2023/10/06 03:22:56;;;;;;;21.65;12.90;;;;;;;14.32;100.00;98155.16;5126419;27;20077;-71
2023/10/06 03:25:22;;;;;;;22.80;12.55;;;;;;;14.38;100.00;98146.69;5119543;27;20387;-71
2023/10/06 03:27:54;;;;;;;22.17;12.25;;;;;;;14.48;100.00;98150.50;5137421;27;20030;-71
2023/10/06 03:30:33;;;;;;;17.60;11.77;;;;;;;14.47;100.00;98151.44;5138635;27;20038;-72
2023/10/06 03:32:59;;;;;;;21.40;11.70;;;;;;;14.48;100.00;98147.81;5139494;27;20103;-72
2023/10/06 03:35:35;;;;;;;26.83;13.98;;;;;;;14.52;100.00;98145.72;5137171;27;20034;-72
2023/10/06 03:43:47;;;;;;;30.83;12.20;;;;;;;14.40;100.00;98155.50;5140098;27;20034;-72
2023/10/06 03:46:15;;;;;;;23.63;12.23;;;;;;;14.30;100.00;98154.41;5141083;27;20401;-71
2023/10/06 03:48:41;;;;;;;33.53;13.85;;;;;;;14.20;100.00;98155.97;5155569;27;20025;-71
2023/10/06 03:51:07;;;;;;;28.95;11.93;;;;;;;14.09;100.00;98162.06;5119982;27;20027;-71
2023/10/06 03:53:32;;;;;;;21.48;10.65;;;;;;;13.97;100.00;98162.00;5155423;27;20018;-71
2023/10/06 03:55:58;;;;;;;24.05;11.10;;;;;;;13.86;100.00;98162.72;5137119;27;20460;-71
2023/10/06 03:58:31;;;;;;;22.05;10.45;;;;;;;13.83;100.00;98159.34;5136803;27;20027;-72
2023/10/06 04:00:58;;;;;;;19.13;11.35;;;;;;;13.79;100.00;98168.56;5120921;27;20138;-72
2023/10/06 04:03:23;;;;;;;32.72;12.52;;;;;;;13.72;100.00;98164.59;5136622;27;20022;-73
2023/10/06 04:05:51;;;;;;;28.88;13.95;;;;;;;13.74;100.00;98163.50;5137147;27;20022;-73
2023/10/06 04:08:23;;;;;;;33.72;14.73;;;;;;;13.78;100.00;98170.41;5119622;27;20034;-72
2023/10/06 04:10:51;;;;;;;40.13;15.20;;;;;;;13.81;100.00;98180.13;5137217;27;20486;-72
2023/10/06 04:13:17;;;;;;;33.03;15.68;;;;;;;13.77;100.00;98170.50;5119799;27;20023;-72
2023/10/06 04:15:49;;;;;;;32.80;15.55;;;;;;;13.84;100.00;98172.69;5136540;27;20091;-71
2023/10/06 04:18:21;;;;;;;25.50;15.05;;;;;;;13.83;100.00;98168.28;5120062;27;20102;-71
2023/10/06 04:20:46;;;;;;;39.83;15.27;;;;;;;13.87;100.00;98180.56;5119557;27;20374;-73
2023/10/06 04:23:13;;;;;;;29.33;14.52;;;;;;;13.91;100.00;98173.16;5136682;27;20103;-71
2023/10/06 04:25:39;;;;;;;36.88;14.43;;;;;;;14.00;100.00;98175.25;5136654;27;20111;-71
2023/10/06 04:28:11;;;;;;;26.75;14.27;;;;;;;14.11;100.00;98178.09;5136293;27;20030;-72
2023/10/06 04:30:37;;;;;;;28.13;12.60;;;;;;;14.11;100.00;98187.03;5136463;27;20065;-72
2023/10/06 04:33:08;;;;;;;24.80;13.10;;;;;;;14.12;100.00;98187.88;5116613;27;20023;-71
2023/10/06 04:35:34;;;;;;;30.88;13.57;;;;;;;14.21;100.00;98190.00;5115483;27;20535;-72
2023/10/06 04:38:01;;;;;;;21.75;12.40;;;;;;;14.09;100.00;98196.16;5115462;27;20035;-72
2023/10/06 04:40:29;;;;;;;22.60;11.52;;;;;;;14.22;100.00;98189.00;5115254;27;20041;-72
2023/10/06 04:42:56;;;;;;;26.17;12.68;;;;;;;14.31;100.00;98193.78;5115066;27;20027;-71
2023/10/06 04:45:23;;;;;;;19.48;11.23;;;;;;;14.38;100.00;98189.75;5115537;27;20402;-71
2023/10/06 04:47:49;;;;;;;23.50;11.45;;;;;;;14.49;100.00;98202.47;5098207;27;20030;-72
2023/10/06 04:50:16;;;;;;;21.38;10.75;;;;;;;14.56;100.00;98190.34;5122198;27;20475;-71
2023/10/06 04:52:46;;;;;;;20.88;12.02;;;;;;;14.54;100.00;98197.66;5131321;27;20431;-72
2023/10/06 04:55:13;;;;;;;22.33;11.68;;;;;;;14.49;100.00;98206.03;5136025;27;20023;-72
2023/10/06 04:57:40;;;;;;;25.38;10.95;;;;;;;14.36;100.00;98207.84;5118784;27;20027;-72
2023/10/06 05:00:13;;;;;;;24.67;11.30;;;;;;;14.30;100.00;98202.84;5132403;27;20027;-72
2023/10/06 05:02:42;;;;;;;29.05;11.05;;;;;;;14.32;100.00;98205.41;5115742;27;20023;-71
2023/10/06 05:05:12;;;;;;;26.08;11.90;;;;;;;14.31;100.00;98212.63;5101844;27;20029;-71
2023/10/06 05:07:38;;;;;;;27.88;11.55;;;;;;;14.37;100.00;98209.56;5115002;27;20026;-72
2023/10/06 05:10:08;;;;;;;18.95;11.13;;;;;;;14.54;100.00;98222.78;5133269;27;20035;-72
2023/10/06 05:12:37;;;;;;;20.38;10.65;;;;;;;14.63;100.00;98207.81;5098187;27;20027;-72
2023/10/06 05:15:14;;;;;;;24.80;10.38;;;;;;;14.76;100.00;98216.81;5098303;27;20046;-71
2023/10/06 05:17:40;;;;;;;19.95;11.20;;;;;;;14.87;100.00;98216.06;5137265;27;20015;-72
2023/10/06 05:20:13;;;;;;;26.00;12.63;;;;;;;14.89;100.00;98211.44;5117143;27;20497;-72
2023/10/06 05:22:40;;;;;;;43.17;13.23;;;;;;;14.94;100.00;98212.84;5120194;27;20051;-72
2023/10/06 05:25:13;;;;;;;45.53;15.48;;;;;;;15.01;100.00;98216.81;5135310;27;20050;-71
2023/10/06 05:27:38;;;;;;;32.67;14.70;;;;;;;14.90;100.00;98213.13;5136073;27;20118;-73
2023/10/06 05:30:06;;;;;;;55.97;19.00;;;;;;;14.93;100.00;98219.19;5135136;27;20054;-71
2023/10/06 05:32:32;;;;;;;54.15;17.38;;;;;;;15.01;100.00;98222.22;5117430;27;20091;-72
2023/10/06 05:34:58;;;;;;;38.75;18.02;;;;;;;15.23;100.00;98226.13;5135125;27;20054;-73
2023/10/06 05:37:23;;;;;;;31.83;13.27;;;;;;;15.46;100.00;98220.84;5134987;27;20059;-72
2023/10/06 05:39:49;;;;;;;29.05;12.82;;;;;;;15.70;100.00;98227.22;5117777;27;20394;-71
2023/10/06 05:42:15;;;;;;;24.70;11.25;;;;;;;15.83;100.00;98223.63;5117885;27;20030;-72
2023/10/06 05:44:41;;;;;;;43.22;14.30;;;;;;;15.78;100.00;98225.81;5117343;27;20087;-72
2023/10/06 05:47:08;;;;;;;33.33;14.73;;;;;;;15.88;100.00;98238.50;5133828;27;20038;-72
2023/10/06 05:49:38;;;;;;;46.83;14.50;;;;;;;16.01;100.00;98236.66;5153544;27;20039;-72
2023/10/06 05:52:10;;;;;;;34.20;13.50;;;;;;;16.34;100.00;98235.13;5153518;27;20058;-72
2023/10/06 05:54:37;;;;;;;41.58;16.38;;;;;;;16.50;100.00;98235.72;5135003;27;20022;-73
2023/10/06 05:57:04;;;;;;;43.45;15.00;;;;;;;16.51;100.00;98240.16;5153208;27;20038;-72
2023/10/06 05:59:32;;;;;;;36.10;14.10;;;;;;;16.75;100.00;98235.63;5134222;27;20026;-72
2023/10/06 06:02:00;;;;;;;32.85;13.90;;;;;;;16.68;100.00;98237.94;5153204;27;20038;-70
2023/10/06 06:04:30;;;;;;;38.78;14.55;;;;;;;16.70;100.00;98240.53;5134126;27;20030;-71
2023/10/06 06:07:02;;;;;;;36.05;14.73;;;;;;;16.92;100.00;98234.38;5117521;27;20463;-72
2023/10/06 06:09:28;;;;;;;;;;;;;;;17.00;100.00;98245.44;5153145;27;20419;-71
2023/10/06 06:11:53;;;;;;;31.77;14.70;;;;;;;17.07;100.00;98244.00;5134522;27;19918;-71
2023/10/06 06:14:21;;;;;;;46.20;14.77;;;;;;;17.71;100.00;98234.44;5116838;27;20026;-71
2023/10/06 06:16:50;;;;;;;30.40;13.32;;;;;;;18.38;100.00;98243.38;5134951;27;20037;-71
2023/10/06 06:19:23;;;;;;;35.30;13.80;;;;;;;19.14;100.00;98234.25;5110378;27;20394;-72
2023/10/06 06:21:49;;;;;;;41.45;17.40;;;;;;;19.82;100.00;98230.97;5055353;28;20491;-72
2023/10/06 06:24:20;;;;;;;33.05;14.25;;;;;;;20.15;100.00;98230.69;5079172;28;20024;-73
2023/10/06 06:26:45;;;;;;;27.92;12.95;;;;;;;20.28;100.00;98233.19;5086632;28;20024;-73
2023/10/06 06:29:11;;;;;;;31.13;12.13;;;;;;;20.72;100.00;98229.16;5053212;28;20377;-73
2023/10/06 06:31:37;;;;;;;26.20;11.30;;;;;;;21.19;100.00;98231.06;5066358;28;20078;-71
2023/10/06 06:34:06;;;;;;;24.23;11.40;;;;;;;22.31;100.00;98222.84;5066401;28;20074;-72
2023/10/06 06:36:32;;;;;;;23.95;11.23;;;;;;;22.33;100.00;98218.13;5067249;28;20507;-71
2023/10/06 06:39:03;;;;;;;21.05;11.20;;;;;;;21.66;100.00;98218.34;5049704;28;20041;-72
2023/10/06 06:41:28;;;;;;;22.08;11.38;;;;;;;20.87;100.00;98244.03;5060353;28;20388;-72
2023/10/06 06:44:01;;;;;;;24.38;12.57;;;;;;;20.67;100.00;98253.19;5064327;28;20262;-72
2023/10/06 06:46:26;;;;;;;;;;;;;;;20.31;100.00;98260.09;5067718;28;20384;-72
2023/10/06 06:48:52;;;;;;;19.45;10.70;;;;;;;19.89;100.00;98260.19;5099621;27;19965;-72
2023/10/06 06:51:19;;;;;;;27.50;12.00;;;;;;;19.75;100.00;98256.97;5075549;28;20032;-72
2023/10/06 06:53:45;;;;;;;29.92;11.50;;;;;;;19.67;100.00;98260.34;5049382;28;20051;-71
2023/10/06 06:56:11;;;;;;;27.55;11.35;;;;;;;19.63;100.00;98258.88;5067150;28;20024;-72
2023/10/06 06:58:39;;;;;;;28.45;11.95;;;;;;;19.61;100.00;98258.19;5059748;28;20399;-72
2023/10/06 07:01:07;;;;;;;24.48;11.30;;;;;;;19.70;100.00;98260.09;5086082;28;20395;-72
2023/10/06 07:03:32;;;;;;;22.40;12.05;;;;;;;19.55;100.00;98255.13;5068934;28;20061;-71
2023/10/06 07:05:58;;;;;;;25.38;11.65;;;;;;;19.44;100.00;98250.66;5085858;28;20024;-71
2023/10/06 07:08:24;;;;;;;33.70;14.68;;;;;;;19.45;100.00;98271.34;5076881;28;20449;-72
2023/10/06 07:10:53;;;;;;;20.70;11.48;;;;;;;19.55;100.00;98257.84;5075189;28;20028;-72
2023/10/06 07:13:22;;;;;;;25.10;11.43;;;;;;;19.43;100.00;98262.50;5065487;28;20035;-73
2023/10/06 07:15:53;;;;;;;24.45;11.55;;;;;;;19.52;100.00;98255.41;5084132;28;20104;-72
2023/10/06 07:18:19;;;;;;;26.17;12.05;;;;;;;19.72;100.00;98257.25;5068713;28;20048;-70
2023/10/06 07:20:44;;;;;;;21.20;10.38;;;;;;;20.72;100.00;98249.06;5085398;28;20038;-73
2023/10/06 07:23:11;;;;;;;20.58;10.40;;;;;;;21.62;100.00;98227.84;5068574;28;20032;-73
2023/10/06 07:25:37;;;;;;;16.75;8.57;;;;;;;22.84;100.00;98227.59;5068375;28;20035;-73
2023/10/06 07:28:05;;;;;;;14.73;8.23;;;;;;;24.01;97.78;98224.44;5068605;28;20467;-71
2023/10/06 07:30:34;;;;;;;16.85;7.50;;;;;;;24.94;88.27;98210.69;5073190;28;20094;-72
2023/10/06 07:33:00;;;;;;;19.95;7.78;;;;;;;24.80;87.21;98214.88;5088655;28;20177;-73
2023/10/06 07:35:47;;;;;;;25.38;9.15;;;;;;;25.36;84.45;98210.53;5055408;28;20441;-72
2023/10/06 07:38:13;;;;;;;24.65;8.75;;;;;;;25.97;78.41;98204.47;5067619;28;20056;-72
2023/10/06 07:40:40;;;;;;;24.50;8.60;;;;;;;25.28;80.47;98219.63;5071706;28;20557;-72
2023/10/06 07:43:07;;;;;;;20.65;8.85;;;;;;;25.65;77.71;98216.38;5071686;28;20028;-72
2023/10/06 07:45:34;;;;;;;20.85;9.38;;;;;;;25.27;82.79;98228.00;5071659;28;20036;-72
2023/10/06 07:47:59;;;;;;;15.32;8.38;;;;;;;25.16;81.73;98217.38;5088345;28;20032;-72
2023/10/06 07:50:29;;;;;;;21.90;9.73;;;;;;;24.33;89.43;98229.28;5071536;28;20101;-71
2023/10/06 07:52:55;;;;;;;18.08;8.48;;;;;;;25.09;84.53;98214.47;5071713;28;20412;-71
2023/10/06 07:55:23;;;;;;;15.18;7.95;;;;;;;25.62;79.17;98210.38;5072868;28;20057;-72
2023/10/06 07:57:50;;;;;;;12.90;8.32;;;;;;;25.42;79.67;98206.25;5071426;28;20036;-72
2023/10/06 08:00:30;;;;;;;20.35;7.85;;;;;;;25.58;79.83;98211.75;5071486;28;20035;-72
2023/10/06 08:03:00;;;;;;;13.93;8.00;;;;;;;25.72;77.69;98205.53;5072797;28;20031;-72
2023/10/06 08:05:27;;;;;;;17.52;7.43;;;;;;;26.06;75.23;98202.56;5071336;28;20159;-72
2023/10/06 08:07:52;;;;;;;17.48;7.57;;;;;;;26.07;74.47;98199.66;5071035;28;20016;-72
2023/10/06 08:10:18;;;;;;;15.85;7.32;;;;;;;25.97;75.53;98190.75;5071223;28;20202;-71
2023/10/06 08:12:49;;;;;;;12.18;7.15;;;;;;;26.64;71.87;98196.72;5071205;28;20372;-72
2023/10/06 08:15:18;;;;;;;18.02;7.05;;;;;;;27.06;68.96;98191.66;5071203;28;20096;-72
2023/10/06 08:17:52;;;;;;;14.60;7.05;;;;;;;27.97;62.84;98184.13;5071091;28;20036;-73
2023/10/06 08:20:20;;;;;;;12.43;6.45;;;;;;;28.57;59.55;98176.72;5071229;28;20442;-72
2023/10/06 08:22:46;;;;;;;26.95;8.15;;;;;;;29.17;56.81;98179.97;5072412;28;20407;-71
2023/10/06 08:25:16;;;;;;;21.67;7.03;;;;;;;29.03;56.61;98169.88;5087651;28;20139;-71
2023/10/06 08:27:42;;;;;;;14.15;6.47;;;;;;;29.87;52.75;98162.63;5070939;28;20480;-71
2023/10/06 08:30:21;;;;;;;19.90;6.82;;;;;;;30.47;50.09;98157.25;5070645;28;20028;-71
2023/10/06 08:32:48;;;;;;;15.35;6.75;;;;;;;29.79;51.62;98168.25;5055354;28;20036;-71
2023/10/06 08:35:14;;;;;;;15.90;7.03;;;;;;;29.68;50.88;98166.06;5070697;28;20028;-70
2023/10/06 08:37:46;;;;;;;23.73;7.53;;;;;;;29.20;51.16;98164.94;5070840;28;20082;-72
2023/10/06 08:40:16;;;;;;;20.08;7.15;;;;;;;29.31;51.65;98161.72;5069949;28;20116;-72
2023/10/06 08:42:51;;;;;;;13.18;6.95;;;;;;;29.31;51.07;98154.28;5069959;28;20031;-71
2023/10/06 08:45:26;;;;;;;27.05;7.63;;;;;;;29.65;50.59;98163.69;5050789;28;20514;-71
2023/10/06 08:47:59;;;;;;;16.65;6.03;;;;;;;30.29;47.27;98162.44;5099312;28;20052;-73
2023/10/06 08:50:36;;;;;;;14.57;6.47;;;;;;;30.58;46.61;98164.94;5049828;28;20024;-72
2023/10/06 08:53:05;;;;;;;15.77;6.00;;;;;;;30.77;45.88;98145.88;5058546;28;20025;-71
2023/10/06 08:55:31;;;;;;;10.75;6.18;;;;;;;31.12;43.46;98142.81;5047359;28;20119;-71
2023/10/06 08:58:00;;;;;;;14.05;7.43;;;;;;;30.76;43.87;98146.97;5070126;28;20540;-72
2023/10/06 09:00:30;;;;;;;9.98;5.95;;;;;;;31.17;42.10;98142.19;5070233;28;20051;-73
2023/10/06 09:03:14;;;;;;;17.23;6.28;;;;;;;32.06;40.72;98145.41;5070899;28;20099;-71
2023/10/06 09:05:44;;;;;;;14.65;5.53;;;;;;;32.70;38.27;98134.34;5070393;28;20063;-72
2023/10/06 09:08:14;;;;;;;11.18;5.30;;;;;;;31.69;39.31;98136.69;5069945;28;20063;-73
2023/10/06 09:10:51;;;;;;;10.90;5.50;;;;;;;31.64;39.08;98125.44;5070035;28;20082;-72
2023/10/06 09:13:21;;;;;;;13.35;5.03;;;;;;;31.51;37.78;98119.03;5069916;28;20546;-73
2023/10/06 09:16:09;;;;;;;8.68;5.10;;;;;;;32.96;36.37;98125.00;5069771;28;20090;-72
2023/10/06 09:18:38;;;;;;;13.95;5.13;;;;;;;33.33;36.35;98123.28;5069998;28;20117;-72
2023/10/06 09:21:12;;;;;;;12.20;5.20;;;;;;;33.24;35.00;98112.47;5086074;28;20496;-73
2023/10/06 09:23:41;;;;;;;9.45;4.90;;;;;;;34.13;34.46;98117.69;5071068;28;20021;-72
2023/10/06 09:26:08;;;;;;;6.55;4.85;;;;;;;34.31;33.43;98109.34;5053511;28;20020;-70
2023/10/06 09:28:56;;;;;;;7.07;4.50;;;;;;;34.08;33.73;98113.88;5069561;28;20020;-72
2023/10/06 09:31:44;;;;;;;10.50;5.80;;;;;;;33.41;34.23;98115.53;5069456;28;20511;-72
2023/10/06 09:34:11;;;;;;;8.75;4.88;;;;;;;32.43;35.12;98119.72;5069677;28;20028;-71
2023/10/06 09:36:38;;;;;;;8.68;5.30;;;;;;;32.46;35.02;98129.50;5069696;28;20021;-72
2023/10/06 09:39:06;;;;;;;11.18;5.15;;;;;;;30.39;36.66;98115.16;5069408;28;20028;-71
2023/10/06 09:41:33;;;;;;;16.40;11.13;;;;;;;29.25;38.44;98112.88;5070454;28;20484;-71
2023/10/06 09:44:03;;;;;;;9.38;5.07;;;;;;;28.99;38.24;98114.31;5069487;28;20031;-72
2023/10/06 09:46:29;;;;;;;11.60;5.90;;;;;;;28.86;39.05;98118.81;5069276;28;20039;-71
2023/10/06 09:48:58;;;;;;;16.65;6.03;;;;;;;28.80;38.94;98114.09;5069523;28;20020;-71
2023/10/06 09:51:23;;;;;;;10.23;5.50;;;;;;;28.83;39.35;98121.97;5068983;28;20036;-71
2023/10/06 09:53:49;;;;;;;13.60;5.38;;;;;;;28.50;40.13;98116.91;5069237;28;20024;-71
2023/10/06 09:56:17;;;;;;;12.02;5.22;;;;;;;28.83;40.38;98114.56;5069399;28;20252;-72
2023/10/06 09:58:51;;;;;;;10.88;5.22;;;;;;;28.75;40.07;98116.59;5069532;28;20597;-72
2023/10/06 10:01:17;;;;;;;7.93;4.68;;;;;;;28.86;40.16;98116.91;5085525;28;20488;-72
2023/10/06 10:03:43;;;;;;;17.73;5.15;;;;;;;29.36;40.29;98112.31;5068946;28;20078;-72
2023/10/06 10:06:10;;;;;;;8.68;4.60;;;;;;;29.68;39.52;98114.50;5069077;28;20028;-72
2023/10/06 10:08:39;;;;;;;13.65;4.78;;;;;;;29.89;39.34;98108.06;5068940;28;20552;-72
2023/10/06 10:11:14;;;;;;;8.40;4.72;;;;;;;30.92;38.42;98091.28;5069533;28;20559;-72
2023/10/06 10:13:55;;;;;;;9.57;4.60;;;;;;;31.59;37.19;98093.94;5069041;28;20036;-72
2023/10/06 10:16:37;;;;;;;12.02;4.88;;;;;;;32.81;34.93;98080.09;5085882;28;20024;-72
2023/10/06 10:19:11;;;;;;;15.38;6.18;;;;;;;33.70;32.79;98072.41;5068923;28;20036;-72
2023/10/06 10:21:37;;;;;;;15.80;4.30;;;;;;;34.12;30.80;98063.19;5069053;28;20043;-72
2023/10/06 10:24:06;;;;;;;16.23;4.07;;;;;;;34.54;30.32;98047.50;5069089;28;20043;-73
2023/10/06 10:26:36;;;;;;;38.00;5.32;;;;;;;34.87;29.17;98046.19;5085378;28;20503;-72
2023/10/06 10:29:14;;;;;;;16.27;4.40;;;;;;;35.00;29.26;98041.28;5069155;28;20027;-72
2023/10/06 10:31:42;;;;;;;18.38;5.03;;;;;;;35.34;29.09;98040.53;5070218;28;20051;-72
2023/10/06 10:34:19;;;;;;;10.00;3.85;;;;;;;35.68;28.14;98033.31;5068813;28;20553;-71
2023/10/06 10:36:48;;;;;;;9.15;4.15;;;;;;;35.34;28.07;98020.19;5069938;28;20460;-71
2023/10/06 10:39:16;;;;;;;8.80;3.97;;;;;;;35.17;28.28;98019.19;5051487;28;20036;-72
2023/10/06 10:42:07;;;;;;;10.55;3.90;;;;;;;33.50;29.46;98005.94;5052084;28;20035;-72
2023/10/06 10:44:35;;;;;;;8.90;4.03;;;;;;;32.55;30.37;98007.09;5085452;28;20377;-72
2023/10/06 10:47:03;;;;;;;8.68;3.55;;;;;;;33.11;30.38;98009.09;5068924;28;20028;-71
2023/10/06 10:49:32;;;;;;;9.65;3.88;;;;;;;33.56;30.20;98005.03;5068816;28;20097;-73
2023/10/06 10:52:09;;;;;;;11.18;4.38;;;;;;;33.04;30.40;98011.06;5068981;28;20032;-71
2023/10/06 10:54:39;;;;;;;6.50;3.38;;;;;;;33.44;29.97;98000.47;5066005;28;20032;-71
2023/10/06 10:57:14;;;;;;;6.47;4.05;;;;;;;33.13;30.02;97987.56;5068842;28;20032;-71
2023/10/06 11:00:11;;;;;;;12.35;4.22;;;;;;;33.04;29.97;97992.47;5067483;28;20484;-73
2023/10/06 11:02:52;;;;;;;6.10;3.42;;;;;;;32.66;30.05;97991.72;5066064;28;20439;-72
2023/10/06 11:05:22;;;;;;;13.82;3.92;;;;;;;32.15;30.00;97986.25;5087666;28;20036;-71
2023/10/06 11:07:59;;;;;;;9.05;3.95;;;;;;;32.45;30.33;97995.69;5073562;28;20451;-71
2023/10/06 11:10:26;;;;;;;10.13;4.43;;;;;;;32.15;30.95;97994.53;5073455;28;20119;-72
2023/10/06 11:13:20;;;;;;;8.73;3.72;;;;;;;31.40;31.45;97996.03;5072117;28;20024;-72
2023/10/06 11:15:48;;;;;;;6.70;3.70;;;;;;;30.94;31.98;97992.44;5088876;28;20098;-71
2023/10/06 11:18:17;;;;;;;12.90;4.03;;;;;;;30.87;32.00;97992.44;5073304;28;20072;-71
2023/10/06 11:20:43;;;;;;;7.55;3.53;;;;;;;30.87;32.23;97994.34;5088586;28;20492;-72
2023/10/06 11:23:09;;;;;;;10.25;3.53;;;;;;;30.05;32.79;97994.59;5088861;28;20105;-71
2023/10/06 11:25:38;;;;;;;5.40;2.90;;;;;;;29.90;32.57;97991.13;5072005;28;20082;-71
2023/10/06 11:28:12;;;;;;;7.18;3.10;;;;;;;29.55;33.37;97991.16;5067016;28;20081;-72
2023/10/06 11:30:40;;;;;;;9.48;3.30;;;;;;;29.70;33.05;97990.16;5071817;28;20060;-72
2023/10/06 11:33:08;;;;;;;10.38;3.38;;;;;;;29.38;33.60;97998.03;5071820;28;20553;-72
2023/10/06 11:35:34;;;;;;;10.35;3.88;;;;;;;29.16;33.90;98001.03;5055083;28;20048;-71
2023/10/06 11:38:06;;;;;;;13.65;3.55;;;;;;;29.13;33.98;97998.69;5071612;28;20020;-72